Damanhour, Egypt

14:40 EEST 18. Září 2014 (GMT +0300)
Alexandria International | Change Station
CLOSE
Current Station
Letiště
Location: Alexandria,
Nadmořská výška: 23 ft
Poblíž povětrnostní stanice

Výška 23 ft 31.18 °N, 29.95 °E | Updated 40 minutes ago

Partly Cloudy
Částečně oblačno
86 °F
Pocit jako 90 °F
S
13
Vítr proměnlivý Vítr od SZ

Dnes
Vysoké -- | Nízké -- °F
--% Možnost srážek
Včera
Vysoké -- | Nízké -- °F
Precip. -- inčů
6:43 AM 7:00 PM
Ubývající srpek, 28% visible
Tlak 29.95 inčů
Viditelnost 6.2 mílí
Zataženo Nemnoho 2000 ft
Tepelný index 90 °F
Rosný bod 70 °F
Vlhkost 58%
Dešťové srážky 0.00 inčů
Sněhová pokrývka Není k dispozici
UV záření 12 ze 12
Pyl Není k dispozici
Kvalita ovzduší Není k dispozici
Flu Activity Není k dispozici
METAR HEAX 181100Z 31011KT 9999 FEW020 30/21 Q1014 NOSIG

More Conditions Fewer Conditions

Tlak 29.95 inčů
Viditelnost 6.2 mílí
Zataženo Nemnoho 2000 ft
Tepelný index 90 °F
Rosný bod 70 °F
Vlhkost 58%
Dešťové srážky 0.00 inčů
Sněhová pokrývka Není k dispozici
UV záření 12 ze 12
Pyl Není k dispozici
Kvalita ovzduší Není k dispozici
Flu Activity Není k dispozici
METAR HEAX 181100Z 31011KT 9999 FEW020 30/21 Q1014 NOSIG

More Conditions Fewer Conditions

10-Day Weather Forecast

Almanac

Astronomie

Sep. 18, 2014 Východ Západ
Skutečný čas 06:43 EEST 19:00 EEST
Občanský soumrak 06:19 EEST 19:24 EEST
Námořní soumrak 05:51 EEST 19:52 EEST
Astronomický soumrak 05:22 EEST 20:21 EEST
Měsíc 01:34 EEST 15:23 EEST
Délka denního světla 13h 04m
Délka dne
12h 16m
Tomorrow will be 1m 53s shorter.
Ubývající srpek, 28% of the Moon is Illuminated
Dnes
Ubývající srpek
Zář 24
Nov
Říj 1
První čtvrť
Říj 8
Úplněk
Říj 15
Ubývající

Včerejší extrémy

Nejvyšší hodnoty ve státě Nejnižší hodnoty ve státě

Community

WunderPhotos

Upload Photos

1,754,324 snímků staženo!

Nearby

Výška sněhu

Not available.

Seizmická činnost

Město Distance Mag. Čas & datum
Žádné zemětřesení v okolí nebylo hlášeno
Minimální zobrazený rozsah je 2.5.

Pobřežní teplota vody

Lokalita Teplota
Stanice nic nehlásí

Poblíž povětrnostní stanice